sensor_id;sensor_type;location;lat;lon;timestamp;P1;durP1;ratioP1;P2;durP2;ratioP2
84495;SDS011;74855;51.206;17.408;2024-01-30T00:01:48;24.40;;;11.10;;
84495;SDS011;74855;51.206;17.408;2024-01-30T00:06:44;25.70;;;11.40;;
84495;SDS011;74855;51.206;17.408;2024-01-30T00:11:40;23.85;;;9.98;;
84495;SDS011;74855;51.206;17.408;2024-01-30T00:16:37;26.77;;;9.90;;
84495;SDS011;74855;51.206;17.408;2024-01-30T00:21:33;24.50;;;10.77;;
84495;SDS011;74855;51.206;17.408;2024-01-30T00:26:29;21.33;;;9.18;;
84495;SDS011;74855;51.206;17.408;2024-01-30T00:31:24;22.73;;;10.05;;
84495;SDS011;74855;51.206;17.408;2024-01-30T00:36:21;22.55;;;9.50;;
84495;SDS011;74855;51.206;17.408;2024-01-30T00:41:17;24.23;;;10.02;;
84495;SDS011;74855;51.206;17.408;2024-01-30T00:46:13;24.15;;;11.43;;
84495;SDS011;74855;51.206;17.408;2024-01-30T00:51:08;20.20;;;9.20;;
84495;SDS011;74855;51.206;17.408;2024-01-30T00:56:06;21.73;;;10.98;;
84495;SDS011;74855;51.206;17.408;2024-01-30T01:01:01;22.27;;;8.95;;
84495;SDS011;74855;51.206;17.408;2024-01-30T01:05:57;25.48;;;10.00;;
84495;SDS011;74855;51.206;17.408;2024-01-30T01:10:52;21.33;;;10.65;;
84495;SDS011;74855;51.206;17.408;2024-01-30T01:15:49;20.80;;;9.95;;
84495;SDS011;74855;51.206;17.408;2024-01-30T01:20:45;23.33;;;10.23;;
84495;SDS011;74855;51.206;17.408;2024-01-30T01:25:46;24.52;;;9.65;;
84495;SDS011;74855;51.206;17.408;2024-01-30T01:30:42;24.88;;;10.27;;
84495;SDS011;74855;51.206;17.408;2024-01-30T01:35:39;22.45;;;9.90;;
84495;SDS011;74855;51.206;17.408;2024-01-30T01:40:35;22.67;;;8.95;;
84495;SDS011;74855;51.206;17.408;2024-01-30T01:45:30;20.45;;;9.45;;
84495;SDS011;74855;51.206;17.408;2024-01-30T01:50:26;17.83;;;8.60;;
84495;SDS011;74855;51.206;17.408;2024-01-30T01:55:23;19.48;;;9.80;;
84495;SDS011;74855;51.206;17.408;2024-01-30T02:00:19;24.73;;;9.13;;
84495;SDS011;74855;51.206;17.408;2024-01-30T02:05:15;20.02;;;10.38;;
84495;SDS011;74855;51.206;17.408;2024-01-30T02:10:11;22.92;;;10.10;;
84495;SDS011;74855;51.206;17.408;2024-01-30T02:15:08;20.38;;;10.00;;
84495;SDS011;74855;51.206;17.408;2024-01-30T02:20:09;17.05;;;8.52;;
84495;SDS011;74855;51.206;17.408;2024-01-30T02:25:07;20.33;;;9.27;;
84495;SDS011;74855;51.206;17.408;2024-01-30T02:30:03;21.27;;;10.55;;
84495;SDS011;74855;51.206;17.408;2024-01-30T02:35:01;17.67;;;8.70;;
84495;SDS011;74855;51.206;17.408;2024-01-30T02:39:56;20.73;;;9.98;;
84495;SDS011;74855;51.206;17.408;2024-01-30T02:44:53;21.90;;;8.60;;
84495;SDS011;74855;51.206;17.408;2024-01-30T02:49:49;19.08;;;8.73;;
84495;SDS011;74855;51.206;17.408;2024-01-30T02:54:44;25.00;;;9.52;;
84495;SDS011;74855;51.206;17.408;2024-01-30T02:59:40;17.98;;;8.88;;
84495;SDS011;74855;51.206;17.408;2024-01-30T03:04:37;17.75;;;8.70;;
84495;SDS011;74855;51.206;17.408;2024-01-30T03:09:32;19.10;;;9.05;;
84495;SDS011;74855;51.206;17.408;2024-01-30T03:14:28;18.58;;;9.00;;
84495;SDS011;74855;51.206;17.408;2024-01-30T03:19:25;18.95;;;9.00;;
84495;SDS011;74855;51.206;17.408;2024-01-30T03:24:22;18.70;;;8.27;;
84495;SDS011;74855;51.206;17.408;2024-01-30T03:29:18;16.65;;;7.65;;
84495;SDS011;74855;51.206;17.408;2024-01-30T03:34:13;18.13;;;8.85;;
84495;SDS011;74855;51.206;17.408;2024-01-30T03:39:09;17.60;;;8.13;;
84495;SDS011;74855;51.206;17.408;2024-01-30T03:44:06;15.55;;;7.20;;
84495;SDS011;74855;51.206;17.408;2024-01-30T03:49:01;15.60;;;7.72;;
84495;SDS011;74855;51.206;17.408;2024-01-30T03:53:57;14.55;;;7.78;;
84495;SDS011;74855;51.206;17.408;2024-01-30T03:58:52;17.13;;;7.72;;
84495;SDS011;74855;51.206;17.408;2024-01-30T04:03:49;14.07;;;6.22;;
84495;SDS011;74855;51.206;17.408;2024-01-30T04:08:45;15.82;;;7.60;;
84495;SDS011;74855;51.206;17.408;2024-01-30T04:13:40;15.25;;;6.43;;
84495;SDS011;74855;51.206;17.408;2024-01-30T04:18:36;15.30;;;8.68;;
84495;SDS011;74855;51.206;17.408;2024-01-30T04:23:33;16.42;;;6.85;;
84495;SDS011;74855;51.206;17.408;2024-01-30T04:28:28;13.55;;;6.80;;
84495;SDS011;74855;51.206;17.408;2024-01-30T04:33:24;15.57;;;7.45;;
84495;SDS011;74855;51.206;17.408;2024-01-30T04:38:19;12.82;;;6.78;;
84495;SDS011;74855;51.206;17.408;2024-01-30T04:43:16;14.73;;;6.25;;
84495;SDS011;74855;51.206;17.408;2024-01-30T04:48:12;16.30;;;7.63;;
84495;SDS011;74855;51.206;17.408;2024-01-30T04:53:08;14.30;;;6.85;;
84495;SDS011;74855;51.206;17.408;2024-01-30T04:58:03;13.45;;;7.43;;
84495;SDS011;74855;51.206;17.408;2024-01-30T05:03:02;14.55;;;6.57;;
84495;SDS011;74855;51.206;17.408;2024-01-30T05:07:58;13.43;;;6.20;;
84495;SDS011;74855;51.206;17.408;2024-01-30T05:12:53;17.23;;;6.55;;
84495;SDS011;74855;51.206;17.408;2024-01-30T05:17:49;13.07;;;6.63;;
84495;SDS011;74855;51.206;17.408;2024-01-30T05:22:46;12.48;;;8.30;;
84495;SDS011;74855;51.206;17.408;2024-01-30T05:27:42;16.27;;;7.13;;
84495;SDS011;74855;51.206;17.408;2024-01-30T05:32:37;15.45;;;7.32;;
84495;SDS011;74855;51.206;17.408;2024-01-30T05:37:33;14.13;;;6.32;;
84495;SDS011;74855;51.206;17.408;2024-01-30T05:42:30;12.35;;;6.28;;
84495;SDS011;74855;51.206;17.408;2024-01-30T05:47:25;12.35;;;7.63;;
84495;SDS011;74855;51.206;17.408;2024-01-30T05:52:21;14.82;;;7.15;;
84495;SDS011;74855;51.206;17.408;2024-01-30T05:57:17;13.77;;;6.60;;
84495;SDS011;74855;51.206;17.408;2024-01-30T06:07:10;14.32;;;6.35;;
84495;SDS011;74855;51.206;17.408;2024-01-30T06:12:05;14.35;;;6.80;;
84495;SDS011;74855;51.206;17.408;2024-01-30T06:17:01;10.93;;;6.28;;
84495;SDS011;74855;51.206;17.408;2024-01-30T06:21:58;14.20;;;6.78;;
84495;SDS011;74855;51.206;17.408;2024-01-30T06:26:54;15.35;;;7.72;;
84495;SDS011;74855;51.206;17.408;2024-01-30T06:31:49;18.10;;;7.35;;
84495;SDS011;74855;51.206;17.408;2024-01-30T06:36:45;16.75;;;6.78;;
84495;SDS011;74855;51.206;17.408;2024-01-30T06:41:42;17.70;;;6.43;;
84495;SDS011;74855;51.206;17.408;2024-01-30T06:46:38;13.25;;;5.82;;
84495;SDS011;74855;51.206;17.408;2024-01-30T06:51:33;12.52;;;7.00;;
84495;SDS011;74855;51.206;17.408;2024-01-30T06:56:29;14.65;;;8.52;;
84495;SDS011;74855;51.206;17.408;2024-01-30T07:01:28;19.63;;;7.85;;
84495;SDS011;74855;51.206;17.408;2024-01-30T07:06:25;18.52;;;8.82;;
84495;SDS011;74855;51.206;17.408;2024-01-30T07:11:21;16.35;;;8.13;;
84495;SDS011;74855;51.206;17.408;2024-01-30T07:16:17;14.98;;;7.63;;
84495;SDS011;74855;51.206;17.408;2024-01-30T07:21:14;16.27;;;8.35;;
84495;SDS011;74855;51.206;17.408;2024-01-30T07:26:10;17.48;;;9.43;;
84495;SDS011;74855;51.206;17.408;2024-01-30T07:31:06;18.90;;;10.95;;
84495;SDS011;74855;51.206;17.408;2024-01-30T07:36:02;20.13;;;10.40;;
84495;SDS011;74855;51.206;17.408;2024-01-30T07:40:59;20.67;;;10.13;;
84495;SDS011;74855;51.206;17.408;2024-01-30T07:45:55;18.50;;;9.52;;
84495;SDS011;74855;51.206;17.408;2024-01-30T07:50:51;19.10;;;8.85;;
84495;SDS011;74855;51.206;17.408;2024-01-30T07:55:46;17.23;;;9.13;;
84495;SDS011;74855;51.206;17.408;2024-01-30T08:00:43;21.42;;;9.57;;
84495;SDS011;74855;51.206;17.408;2024-01-30T08:05:40;16.02;;;8.13;;
84495;SDS011;74855;51.206;17.408;2024-01-30T08:10:35;20.50;;;9.45;;
84495;SDS011;74855;51.206;17.408;2024-01-30T08:15:31;22.65;;;10.32;;
84495;SDS011;74855;51.206;17.408;2024-01-30T08:20:28;26.60;;;10.90;;
84495;SDS011;74855;51.206;17.408;2024-01-30T08:25:24;22.30;;;10.45;;
84495;SDS011;74855;51.206;17.408;2024-01-30T08:35:15;20.77;;;9.07;;
84495;SDS011;74855;51.206;17.408;2024-01-30T08:40:12;16.02;;;8.68;;
84495;SDS011;74855;51.206;17.408;2024-01-30T08:45:08;15.65;;;7.75;;
84495;SDS011;74855;51.206;17.408;2024-01-30T08:50:05;18.08;;;7.85;;
84495;SDS011;74855;51.206;17.408;2024-01-30T08:55:01;14.88;;;6.57;;
84495;SDS011;74855;51.206;17.408;2024-01-30T08:59:58;13.75;;;8.68;;
84495;SDS011;74855;51.206;17.408;2024-01-30T09:04:53;12.52;;;7.35;;
84495;SDS011;74855;51.206;17.408;2024-01-30T09:09:50;15.07;;;7.90;;
84495;SDS011;74855;51.206;17.408;2024-01-30T09:14:46;13.75;;;8.43;;
84495;SDS011;74855;51.206;17.408;2024-01-30T09:19:43;15.32;;;6.97;;
84495;SDS011;74855;51.206;17.408;2024-01-30T09:24:38;16.45;;;7.53;;
84495;SDS011;74855;51.206;17.408;2024-01-30T09:29:35;15.85;;;6.35;;
84495;SDS011;74855;51.206;17.408;2024-01-30T09:34:30;10.43;;;5.38;;
84495;SDS011;74855;51.206;17.408;2024-01-30T09:39:27;12.63;;;5.28;;
84495;SDS011;74855;51.206;17.408;2024-01-30T09:44:23;11.85;;;5.60;;
84495;SDS011;74855;51.206;17.408;2024-01-30T09:49:20;8.85;;;5.18;;
84495;SDS011;74855;51.206;17.408;2024-01-30T09:54:17;11.13;;;5.80;;
84495;SDS011;74855;51.206;17.408;2024-01-30T09:59:16;10.20;;;5.65;;
84495;SDS011;74855;51.206;17.408;2024-01-30T10:04:11;10.20;;;5.57;;
84495;SDS011;74855;51.206;17.408;2024-01-30T10:09:07;10.10;;;5.95;;
84495;SDS011;74855;51.206;17.408;2024-01-30T10:14:02;11.52;;;7.03;;
84495;SDS011;74855;51.206;17.408;2024-01-30T10:18:59;9.52;;;5.78;;
84495;SDS011;74855;51.206;17.408;2024-01-30T10:23:55;10.68;;;6.70;;
84495;SDS011;74855;51.206;17.408;2024-01-30T10:28:51;9.68;;;5.50;;
84495;SDS011;74855;51.206;17.408;2024-01-30T10:33:46;10.25;;;5.20;;
84495;SDS011;74855;51.206;17.408;2024-01-30T10:38:43;9.90;;;5.53;;
84495;SDS011;74855;51.206;17.408;2024-01-30T10:43:40;10.13;;;4.97;;
84495;SDS011;74855;51.206;17.408;2024-01-30T10:48:36;10.38;;;5.65;;
84495;SDS011;74855;51.206;17.408;2024-01-30T10:53:37;11.45;;;5.97;;
84495;SDS011;74855;51.206;17.408;2024-01-30T10:58:35;13.57;;;7.90;;
84495;SDS011;74855;51.206;17.408;2024-01-30T11:03:31;14.07;;;7.00;;
84495;SDS011;74855;51.206;17.408;2024-01-30T11:08:27;20.13;;;12.18;;
84495;SDS011;74855;51.206;17.408;2024-01-30T11:13:26;10.68;;;5.72;;
84495;SDS011;74855;51.206;17.408;2024-01-30T11:18:27;9.60;;;5.18;;
84495;SDS011;74855;51.206;17.408;2024-01-30T11:23:25;10.65;;;6.20;;
84495;SDS011;74855;51.206;17.408;2024-01-30T11:28:21;10.68;;;6.18;;
84495;SDS011;74855;51.206;17.408;2024-01-30T11:33:28;10.82;;;6.43;;
84495;SDS011;74855;51.206;17.408;2024-01-30T11:38:25;10.57;;;6.18;;
84495;SDS011;74855;51.206;17.408;2024-01-30T11:43:22;9.95;;;5.10;;
84495;SDS011;74855;51.206;17.408;2024-01-30T11:48:18;9.27;;;5.60;;
84495;SDS011;74855;51.206;17.408;2024-01-30T11:53:15;10.98;;;5.15;;
84495;SDS011;74855;51.206;17.408;2024-01-30T11:58:11;12.60;;;7.68;;
84495;SDS011;74855;51.206;17.408;2024-01-30T12:03:06;7.95;;;4.20;;
84495;SDS011;74855;51.206;17.408;2024-01-30T12:08:02;8.32;;;4.20;;
84495;SDS011;74855;51.206;17.408;2024-01-30T12:13:00;12.93;;;5.43;;
84495;SDS011;74855;51.206;17.408;2024-01-30T12:22:59;11.15;;;5.20;;
84495;SDS011;74855;51.206;17.408;2024-01-30T12:27:54;16.13;;;4.55;;
84495;SDS011;74855;51.206;17.408;2024-01-30T12:32:51;10.35;;;4.75;;
84495;SDS011;74855;51.206;17.408;2024-01-30T12:37:47;8.80;;;4.30;;
84495;SDS011;74855;51.206;17.408;2024-01-30T12:42:45;9.40;;;4.25;;
84495;SDS011;74855;51.206;17.408;2024-01-30T12:47:42;9.23;;;4.60;;
84495;SDS011;74855;51.206;17.408;2024-01-30T12:52:38;9.30;;;4.75;;
84495;SDS011;74855;51.206;17.408;2024-01-30T12:57:34;10.70;;;5.18;;
84495;SDS011;74855;51.206;17.408;2024-01-30T13:02:30;10.85;;;5.13;;
84495;SDS011;74855;51.206;17.408;2024-01-30T13:07:25;10.50;;;5.25;;
84495;SDS011;74855;51.206;17.408;2024-01-30T13:12:22;10.00;;;4.53;;
84495;SDS011;74855;51.206;17.408;2024-01-30T13:17:18;10.40;;;5.22;;
84495;SDS011;74855;51.206;17.408;2024-01-30T13:22:14;11.45;;;5.43;;
84495;SDS011;74855;51.206;17.408;2024-01-30T13:27:09;8.98;;;5.13;;
84495;SDS011;74855;51.206;17.408;2024-01-30T13:32:06;9.43;;;4.80;;
84495;SDS011;74855;51.206;17.408;2024-01-30T13:37:02;11.45;;;5.78;;
84495;SDS011;74855;51.206;17.408;2024-01-30T13:41:59;10.63;;;5.18;;
84495;SDS011;74855;51.206;17.408;2024-01-30T13:46:54;10.63;;;6.05;;
84495;SDS011;74855;51.206;17.408;2024-01-30T13:51:51;9.38;;;5.80;;
84495;SDS011;74855;51.206;17.408;2024-01-30T13:56:47;10.98;;;5.57;;
84495;SDS011;74855;51.206;17.408;2024-01-30T14:01:42;10.13;;;5.85;;
84495;SDS011;74855;51.206;17.408;2024-01-30T14:06:38;12.27;;;6.25;;
84495;SDS011;74855;51.206;17.408;2024-01-30T14:11:35;11.48;;;5.15;;
84495;SDS011;74855;51.206;17.408;2024-01-30T14:16:31;10.35;;;5.18;;
84495;SDS011;74855;51.206;17.408;2024-01-30T14:21:27;10.88;;;5.53;;
84495;SDS011;74855;51.206;17.408;2024-01-30T14:26:22;9.75;;;4.75;;
84495;SDS011;74855;51.206;17.408;2024-01-30T14:31:26;10.00;;;4.60;;
84495;SDS011;74855;51.206;17.408;2024-01-30T14:36:22;11.00;;;4.47;;
84495;SDS011;74855;51.206;17.408;2024-01-30T14:41:19;9.85;;;4.50;;
84495;SDS011;74855;51.206;17.408;2024-01-30T14:46:15;11.40;;;4.75;;
84495;SDS011;74855;51.206;17.408;2024-01-30T14:51:12;13.23;;;5.00;;
84495;SDS011;74855;51.206;17.408;2024-01-30T14:56:07;11.02;;;4.95;;
84495;SDS011;74855;51.206;17.408;2024-01-30T15:01:03;10.32;;;4.65;;
84495;SDS011;74855;51.206;17.408;2024-01-30T15:05:58;11.63;;;4.45;;
84495;SDS011;74855;51.206;17.408;2024-01-30T15:10:55;10.95;;;4.70;;
84495;SDS011;74855;51.206;17.408;2024-01-30T15:15:51;9.90;;;4.68;;
84495;SDS011;74855;51.206;17.408;2024-01-30T15:20:47;9.70;;;4.32;;
84495;SDS011;74855;51.206;17.408;2024-01-30T15:25:42;12.63;;;5.38;;
84495;SDS011;74855;51.206;17.408;2024-01-30T15:30:39;12.73;;;5.90;;
84495;SDS011;74855;51.206;17.408;2024-01-30T15:35:35;11.23;;;5.00;;
84495;SDS011;74855;51.206;17.408;2024-01-30T15:40:30;13.65;;;5.38;;
84495;SDS011;74855;51.206;17.408;2024-01-30T15:45:26;11.07;;;5.45;;
84495;SDS011;74855;51.206;17.408;2024-01-30T15:50:23;7.85;;;4.10;;
84495;SDS011;74855;51.206;17.408;2024-01-30T15:55:19;8.93;;;3.92;;
84495;SDS011;74855;51.206;17.408;2024-01-30T16:00:15;10.32;;;4.20;;
84495;SDS011;74855;51.206;17.408;2024-01-30T16:05:12;11.38;;;5.30;;
84495;SDS011;74855;51.206;17.408;2024-01-30T16:10:09;16.67;;;8.10;;
84495;SDS011;74855;51.206;17.408;2024-01-30T16:15:07;62.13;;;30.40;;
84495;SDS011;74855;51.206;17.408;2024-01-30T16:20:04;30.27;;;17.08;;
84495;SDS011;74855;51.206;17.408;2024-01-30T16:25:01;14.88;;;10.52;;
84495;SDS011;74855;51.206;17.408;2024-01-30T16:29:58;16.52;;;6.55;;
84495;SDS011;74855;51.206;17.408;2024-01-30T16:34:54;25.40;;;13.18;;
84495;SDS011;74855;51.206;17.408;2024-01-30T16:39:49;21.85;;;10.65;;
84495;SDS011;74855;51.206;17.408;2024-01-30T16:44:45;14.15;;;7.32;;
84495;SDS011;74855;51.206;17.408;2024-01-30T16:49:42;14.45;;;7.70;;
84495;SDS011;74855;51.206;17.408;2024-01-30T16:54:38;17.90;;;9.57;;
84495;SDS011;74855;51.206;17.408;2024-01-30T16:59:33;19.25;;;9.38;;
84495;SDS011;74855;51.206;17.408;2024-01-30T17:04:29;20.00;;;7.53;;
84495;SDS011;74855;51.206;17.408;2024-01-30T17:09:26;17.92;;;9.32;;
84495;SDS011;74855;51.206;17.408;2024-01-30T17:14:21;14.05;;;6.10;;
84495;SDS011;74855;51.206;17.408;2024-01-30T17:19:17;21.95;;;11.30;;
84495;SDS011;74855;51.206;17.408;2024-01-30T17:24:13;20.27;;;12.07;;
84495;SDS011;74855;51.206;17.408;2024-01-30T17:29:10;12.65;;;5.97;;
84495;SDS011;74855;51.206;17.408;2024-01-30T17:34:05;19.40;;;10.05;;
84495;SDS011;74855;51.206;17.408;2024-01-30T17:39:01;19.52;;;9.90;;
84495;SDS011;74855;51.206;17.408;2024-01-30T17:43:57;20.35;;;9.57;;
84495;SDS011;74855;51.206;17.408;2024-01-30T17:48:54;17.17;;;7.82;;
84495;SDS011;74855;51.206;17.408;2024-01-30T17:53:49;23.30;;;10.88;;
84495;SDS011;74855;51.206;17.408;2024-01-30T17:58:45;18.33;;;9.57;;
84495;SDS011;74855;51.206;17.408;2024-01-30T18:03:40;17.73;;;9.15;;
84495;SDS011;74855;51.206;17.408;2024-01-30T18:08:37;20.67;;;9.98;;
84495;SDS011;74855;51.206;17.408;2024-01-30T18:13:33;18.95;;;9.45;;
84495;SDS011;74855;51.206;17.408;2024-01-30T18:18:28;19.88;;;8.52;;
84495;SDS011;74855;51.206;17.408;2024-01-30T18:23:24;15.90;;;8.27;;
84495;SDS011;74855;51.206;17.408;2024-01-30T18:28:21;18.50;;;8.75;;
84495;SDS011;74855;51.206;17.408;2024-01-30T18:33:17;17.45;;;10.52;;
84495;SDS011;74855;51.206;17.408;2024-01-30T18:38:12;25.48;;;13.68;;
84495;SDS011;74855;51.206;17.408;2024-01-30T18:43:08;24.33;;;10.25;;
84495;SDS011;74855;51.206;17.408;2024-01-30T18:48:05;18.48;;;9.88;;
84495;SDS011;74855;51.206;17.408;2024-01-30T18:53:01;24.73;;;13.50;;
84495;SDS011;74855;51.206;17.408;2024-01-30T18:57:57;22.90;;;10.77;;
84495;SDS011;74855;51.206;17.408;2024-01-30T19:02:52;18.55;;;10.63;;
84495;SDS011;74855;51.206;17.408;2024-01-30T19:07:49;19.00;;;10.30;;
84495;SDS011;74855;51.206;17.408;2024-01-30T19:12:45;16.00;;;8.60;;
84495;SDS011;74855;51.206;17.408;2024-01-30T19:17:41;16.60;;;9.10;;
84495;SDS011;74855;51.206;17.408;2024-01-30T19:27:33;12.60;;;7.63;;
84495;SDS011;74855;51.206;17.408;2024-01-30T19:32:29;18.55;;;9.75;;
84495;SDS011;74855;51.206;17.408;2024-01-30T19:37:24;26.02;;;12.18;;
84495;SDS011;74855;51.206;17.408;2024-01-30T19:42:20;10.68;;;5.25;;
84495;SDS011;74855;51.206;17.408;2024-01-30T19:47:17;18.33;;;8.57;;
84495;SDS011;74855;51.206;17.408;2024-01-30T19:52:12;16.80;;;9.13;;
84495;SDS011;74855;51.206;17.408;2024-01-30T19:57:08;17.77;;;8.88;;
84495;SDS011;74855;51.206;17.408;2024-01-30T20:02:04;19.02;;;9.32;;
84495;SDS011;74855;51.206;17.408;2024-01-30T20:11:56;14.00;;;7.53;;
84495;SDS011;74855;51.206;17.408;2024-01-30T20:16:53;20.95;;;9.48;;
84495;SDS011;74855;51.206;17.408;2024-01-30T20:21:48;22.48;;;9.93;;
84495;SDS011;74855;51.206;17.408;2024-01-30T20:26:45;26.98;;;11.48;;
84495;SDS011;74855;51.206;17.408;2024-01-30T20:31:41;23.25;;;10.10;;
84495;SDS011;74855;51.206;17.408;2024-01-30T20:36:36;21.90;;;10.30;;
84495;SDS011;74855;51.206;17.408;2024-01-30T20:46:32;21.27;;;9.65;;
84495;SDS011;74855;51.206;17.408;2024-01-30T20:51:28;20.27;;;9.07;;
84495;SDS011;74855;51.206;17.408;2024-01-30T20:56:24;17.48;;;9.20;;
84495;SDS011;74855;51.206;17.408;2024-01-30T21:06:16;15.50;;;7.23;;
84495;SDS011;74855;51.206;17.408;2024-01-30T21:11:12;17.15;;;8.20;;
84495;SDS011;74855;51.206;17.408;2024-01-30T21:21:03;18.50;;;8.10;;
84495;SDS011;74855;51.206;17.408;2024-01-30T21:26:01;16.98;;;8.80;;
84495;SDS011;74855;51.206;17.408;2024-01-30T21:30:56;15.43;;;8.73;;
84495;SDS011;74855;51.206;17.408;2024-01-30T21:35:52;13.50;;;6.95;;
84495;SDS011;74855;51.206;17.408;2024-01-30T21:45:44;25.13;;;12.83;;
84495;SDS011;74855;51.206;17.408;2024-01-30T21:50:40;18.10;;;9.27;;
84495;SDS011;74855;51.206;17.408;2024-01-30T21:55:47;22.50;;;12.48;;
84495;SDS011;74855;51.206;17.408;2024-01-30T22:00:44;19.45;;;10.52;;
84495;SDS011;74855;51.206;17.408;2024-01-30T22:05:40;20.95;;;12.45;;
84495;SDS011;74855;51.206;17.408;2024-01-30T22:10:35;16.55;;;9.43;;
84495;SDS011;74855;51.206;17.408;2024-01-30T22:20:29;15.70;;;9.53;;
84495;SDS011;74855;51.206;17.408;2024-01-30T22:25:24;17.90;;;8.02;;
84495;SDS011;74855;51.206;17.408;2024-01-30T22:35:21;22.20;;;10.00;;
84495;SDS011;74855;51.206;17.408;2024-01-30T22:40:19;17.35;;;9.43;;
84495;SDS011;74855;51.206;17.408;2024-01-30T22:45:17;22.55;;;11.80;;
84495;SDS011;74855;51.206;17.408;2024-01-30T22:50:12;25.35;;;11.80;;
84495;SDS011;74855;51.206;17.408;2024-01-30T22:55:08;23.98;;;10.23;;
84495;SDS011;74855;51.206;17.408;2024-01-30T23:05:01;22.42;;;12.30;;
84495;SDS011;74855;51.206;17.408;2024-01-30T23:14:52;21.43;;;10.77;;
84495;SDS011;74855;51.206;17.408;2024-01-30T23:24:44;23.13;;;10.13;;
84495;SDS011;74855;51.206;17.408;2024-01-30T23:29:40;22.00;;;10.60;;
84495;SDS011;74855;51.206;17.408;2024-01-30T23:34:35;22.52;;;10.75;;
84495;SDS011;74855;51.206;17.408;2024-01-30T23:39:32;17.05;;;7.70;;
84495;SDS011;74855;51.206;17.408;2024-01-30T23:44:28;19.13;;;8.57;;
84495;SDS011;74855;51.206;17.408;2024-01-30T23:54:19;14.35;;;7.90;;
